Waunakee, Wisconsin
Current Conditions -  °F | °C
As of 12:15 AM on Sunday 26 Oct 2014 (Local Time) from KC29 Reporting Station
Clear Clear  
Wind Chill:   Ceiling: Unl
Heat Index:   Visibility: 10mi
Dew Point: -2°   Wind: 3mph
Humidity: 47%   Direction: 320°NW
Pressure: 30.01"   Gusts: NA
Location:  43.19°N, 89.46°W
Report Text: KC29 260515Z AUTO 32003KT 10SM CLR 08/M02 A3001 RMK AO1 T00841023
Loading
Personal Weather Stations






























Interactive Weather Map
Tropical Storm Tracking
New forecast layout! Learn more

10-Day Weather Forecast

Advertisements
Track Severe Weather on mobile